sensor_id;sensor_type;location;lat;lon;timestamp;P1;durP1;ratioP1;P2;durP2;ratioP2
9900;SDS011;4989;48.772;9.154;2023-02-28T00:02:00;2.20;;;1.80;;
9900;SDS011;4989;48.772;9.154;2023-02-28T00:07:02;2.40;;;1.57;;
9900;SDS011;4989;48.772;9.154;2023-02-28T00:12:04;2.40;;;1.70;;
9900;SDS011;4989;48.772;9.154;2023-02-28T00:17:11;1.73;;;1.63;;
9900;SDS011;4989;48.772;9.154;2023-02-28T00:22:14;1.83;;;1.73;;
9900;SDS011;4989;48.772;9.154;2023-02-28T00:27:20;2.27;;;1.80;;
9900;SDS011;4989;48.772;9.154;2023-02-28T00:32:23;1.73;;;1.63;;
9900;SDS011;4989;48.772;9.154;2023-02-28T00:37:25;1.77;;;1.57;;
9900;SDS011;4989;48.772;9.154;2023-02-28T00:42:27;1.97;;;1.77;;
9900;SDS011;4989;48.772;9.154;2023-02-28T00:47:30;2.23;;;1.73;;
9900;SDS011;4989;48.772;9.154;2023-02-28T00:52:33;2.13;;;1.57;;
9900;SDS011;4989;48.772;9.154;2023-02-28T00:57:35;2.90;;;2.07;;
9900;SDS011;4989;48.772;9.154;2023-02-28T01:02:38;1.90;;;1.63;;
9900;SDS011;4989;48.772;9.154;2023-02-28T01:07:42;2.03;;;1.60;;
9900;SDS011;4989;48.772;9.154;2023-02-28T01:12:44;2.77;;;1.90;;
9900;SDS011;4989;48.772;9.154;2023-02-28T01:17:46;2.67;;;1.80;;
9900;SDS011;4989;48.772;9.154;2023-02-28T01:22:48;1.83;;;1.73;;
9900;SDS011;4989;48.772;9.154;2023-02-28T01:27:50;3.67;;;1.77;;
9900;SDS011;4989;48.772;9.154;2023-02-28T01:32:53;2.23;;;2.03;;
9900;SDS011;4989;48.772;9.154;2023-02-28T01:37:55;2.53;;;2.00;;
9900;SDS011;4989;48.772;9.154;2023-02-28T01:43:20;2.50;;;2.10;;
9900;SDS011;4989;48.772;9.154;2023-02-28T01:48:32;3.53;;;2.00;;
9900;SDS011;4989;48.772;9.154;2023-02-28T01:53:42;2.60;;;1.77;;
9900;SDS011;4989;48.772;9.154;2023-02-28T01:58:51;2.07;;;1.87;;
9900;SDS011;4989;48.772;9.154;2023-02-28T02:03:57;1.90;;;1.80;;
9900;SDS011;4989;48.772;9.154;2023-02-28T02:09:04;2.30;;;2.10;;
9900;SDS011;4989;48.772;9.154;2023-02-28T02:14:10;2.60;;;2.23;;
9900;SDS011;4989;48.772;9.154;2023-02-28T02:25:07;2.23;;;2.03;;
9900;SDS011;4989;48.772;9.154;2023-02-28T02:36:06;2.80;;;2.20;;
9900;SDS011;4989;48.772;9.154;2023-02-28T02:41:49;2.13;;;2.00;;
9900;SDS011;4989;48.772;9.154;2023-02-28T02:47:05;2.30;;;2.20;;
9900;SDS011;4989;48.772;9.154;2023-02-28T02:52:15;2.30;;;2.10;;
9900;SDS011;4989;48.772;9.154;2023-02-28T02:57:36;2.53;;;1.93;;
9900;SDS011;4989;48.772;9.154;2023-02-28T03:02:48;2.47;;;2.27;;
9900;SDS011;4989;48.772;9.154;2023-02-28T03:07:55;2.57;;;2.23;;
9900;SDS011;4989;48.772;9.154;2023-02-28T03:13:19;3.50;;;2.40;;
9900;SDS011;4989;48.772;9.154;2023-02-28T03:18:58;3.20;;;2.50;;
9900;SDS011;4989;48.772;9.154;2023-02-28T03:30:12;2.37;;;2.17;;
9900;SDS011;4989;48.772;9.154;2023-02-28T03:35:29;2.67;;;2.20;;
9900;SDS011;4989;48.772;9.154;2023-02-28T03:40:37;3.33;;;2.40;;
9900;SDS011;4989;48.772;9.154;2023-02-28T03:45:43;2.47;;;2.27;;
9900;SDS011;4989;48.772;9.154;2023-02-28T03:50:49;2.90;;;2.70;;
9900;SDS011;4989;48.772;9.154;2023-02-28T03:56:18;4.57;;;2.80;;
9900;SDS011;4989;48.772;9.154;2023-02-28T04:01:35;3.00;;;2.60;;
9900;SDS011;4989;48.772;9.154;2023-02-28T04:06:43;2.37;;;2.13;;
9900;SDS011;4989;48.772;9.154;2023-02-28T04:11:49;2.87;;;2.57;;
9900;SDS011;4989;48.772;9.154;2023-02-28T04:16:53;3.70;;;2.17;;
9900;SDS011;4989;48.772;9.154;2023-02-28T04:21:55;3.67;;;2.50;;
9900;SDS011;4989;48.772;9.154;2023-02-28T04:26:58;2.83;;;2.60;;
9900;SDS011;4989;48.772;9.154;2023-02-28T04:32:01;2.50;;;2.30;;
9900;SDS011;4989;48.772;9.154;2023-02-28T04:37:04;3.20;;;2.73;;
9900;SDS011;4989;48.772;9.154;2023-02-28T04:42:14;2.80;;;2.60;;
9900;SDS011;4989;48.772;9.154;2023-02-28T04:47:16;4.10;;;2.60;;
9900;SDS011;4989;48.772;9.154;2023-02-28T04:52:19;2.77;;;2.57;;
9900;SDS011;4989;48.772;9.154;2023-02-28T04:57:21;2.93;;;2.63;;
9900;SDS011;4989;48.772;9.154;2023-02-28T05:02:23;2.60;;;2.40;;
9900;SDS011;4989;48.772;9.154;2023-02-28T05:07:26;3.80;;;2.50;;
9900;SDS011;4989;48.772;9.154;2023-02-28T05:12:31;3.10;;;2.80;;
9900;SDS011;4989;48.772;9.154;2023-02-28T05:17:33;4.37;;;2.87;;
9900;SDS011;4989;48.772;9.154;2023-02-28T05:22:35;3.70;;;2.67;;
9900;SDS011;4989;48.772;9.154;2023-02-28T05:27:41;3.57;;;3.00;;
9900;SDS011;4989;48.772;9.154;2023-02-28T05:32:44;3.67;;;3.10;;
9900;SDS011;4989;48.772;9.154;2023-02-28T05:37:52;3.60;;;3.30;;
9900;SDS011;4989;48.772;9.154;2023-02-28T05:42:54;3.10;;;2.80;;
9900;SDS011;4989;48.772;9.154;2023-02-28T05:47:57;3.40;;;3.10;;
9900;SDS011;4989;48.772;9.154;2023-02-28T05:52:59;3.77;;;3.00;;
9900;SDS011;4989;48.772;9.154;2023-02-28T05:58:02;3.17;;;2.67;;
9900;SDS011;4989;48.772;9.154;2023-02-28T06:03:04;5.23;;;3.27;;
9900;SDS011;4989;48.772;9.154;2023-02-28T06:08:06;3.40;;;3.10;;
9900;SDS011;4989;48.772;9.154;2023-02-28T06:13:08;3.37;;;3.07;;
9900;SDS011;4989;48.772;9.154;2023-02-28T06:18:10;4.67;;;3.03;;
9900;SDS011;4989;48.772;9.154;2023-02-28T06:23:12;3.40;;;3.10;;
9900;SDS011;4989;48.772;9.154;2023-02-28T06:28:15;3.77;;;3.10;;
9900;SDS011;4989;48.772;9.154;2023-02-28T06:33:17;4.27;;;3.33;;
9900;SDS011;4989;48.772;9.154;2023-02-28T06:38:20;3.27;;;2.97;;
9900;SDS011;4989;48.772;9.154;2023-02-28T06:43:22;3.13;;;2.83;;
9900;SDS011;4989;48.772;9.154;2023-02-28T06:48:26;3.20;;;2.90;;
9900;SDS011;4989;48.772;9.154;2023-02-28T06:53:29;6.63;;;3.57;;
9900;SDS011;4989;48.772;9.154;2023-02-28T06:58:31;3.83;;;2.97;;
9900;SDS011;4989;48.772;9.154;2023-02-28T07:03:35;4.20;;;3.43;;
9900;SDS011;4989;48.772;9.154;2023-02-28T07:08:38;4.27;;;3.20;;
9900;SDS011;4989;48.772;9.154;2023-02-28T07:13:42;4.47;;;3.60;;
9900;SDS011;4989;48.772;9.154;2023-02-28T07:18:44;4.40;;;3.50;;
9900;SDS011;4989;48.772;9.154;2023-02-28T07:23:46;3.83;;;3.50;;
9900;SDS011;4989;48.772;9.154;2023-02-28T07:28:50;5.37;;;3.83;;
9900;SDS011;4989;48.772;9.154;2023-02-28T07:33:52;5.13;;;3.93;;
9900;SDS011;4989;48.772;9.154;2023-02-28T07:38:55;4.73;;;3.40;;
9900;SDS011;4989;48.772;9.154;2023-02-28T07:43:57;5.40;;;4.03;;
9900;SDS011;4989;48.772;9.154;2023-02-28T07:49:01;5.23;;;4.00;;
9900;SDS011;4989;48.772;9.154;2023-02-28T07:54:04;6.23;;;3.53;;
9900;SDS011;4989;48.772;9.154;2023-02-28T07:59:06;5.03;;;3.67;;
9900;SDS011;4989;48.772;9.154;2023-02-28T08:04:09;6.23;;;4.10;;
9900;SDS011;4989;48.772;9.154;2023-02-28T08:09:11;6.60;;;4.07;;
9900;SDS011;4989;48.772;9.154;2023-02-28T08:14:13;7.57;;;4.07;;
9900;SDS011;4989;48.772;9.154;2023-02-28T08:19:15;5.80;;;4.10;;
9900;SDS011;4989;48.772;9.154;2023-02-28T08:24:17;6.37;;;4.23;;
9900;SDS011;4989;48.772;9.154;2023-02-28T08:29:19;5.03;;;4.53;;
9900;SDS011;4989;48.772;9.154;2023-02-28T08:34:22;3.57;;;3.27;;
9900;SDS011;4989;48.772;9.154;2023-02-28T08:39:24;5.93;;;4.40;;
9900;SDS011;4989;48.772;9.154;2023-02-28T08:44:26;6.47;;;4.40;;
9900;SDS011;4989;48.772;9.154;2023-02-28T08:49:29;5.77;;;4.20;;
9900;SDS011;4989;48.772;9.154;2023-02-28T08:54:31;4.40;;;4.00;;
9900;SDS011;4989;48.772;9.154;2023-02-28T08:59:34;5.37;;;4.20;;
9900;SDS011;4989;48.772;9.154;2023-02-28T09:04:36;6.20;;;4.20;;
9900;SDS011;4989;48.772;9.154;2023-02-28T09:09:39;4.37;;;3.97;;
9900;SDS011;4989;48.772;9.154;2023-02-28T09:14:55;6.43;;;4.80;;
9900;SDS011;4989;48.772;9.154;2023-02-28T09:19:57;7.60;;;4.53;;
9900;SDS011;4989;48.772;9.154;2023-02-28T09:24:59;5.50;;;4.50;;
9900;SDS011;4989;48.772;9.154;2023-02-28T09:30:01;6.20;;;4.67;;
9900;SDS011;4989;48.772;9.154;2023-02-28T09:35:04;5.73;;;4.20;;
9900;SDS011;4989;48.772;9.154;2023-02-28T09:40:08;5.73;;;4.43;;
9900;SDS011;4989;48.772;9.154;2023-02-28T09:45:16;6.13;;;4.77;;
9900;SDS011;4989;48.772;9.154;2023-02-28T09:50:35;7.20;;;4.30;;
9900;SDS011;4989;48.772;9.154;2023-02-28T09:55:50;7.20;;;4.73;;
9900;SDS011;4989;48.772;9.154;2023-02-28T10:01:00;7.47;;;4.93;;
9900;SDS011;4989;48.772;9.154;2023-02-28T10:06:17;5.50;;;4.80;;
9900;SDS011;4989;48.772;9.154;2023-02-28T10:11:24;7.33;;;4.83;;
9900;SDS011;4989;48.772;9.154;2023-02-28T10:22:06;5.27;;;4.73;;
9900;SDS011;4989;48.772;9.154;2023-02-28T10:27:31;6.07;;;4.50;;
9900;SDS011;4989;48.772;9.154;2023-02-28T10:32:35;5.60;;;4.60;;
9900;SDS011;4989;48.772;9.154;2023-02-28T10:37:41;6.40;;;4.93;;
9900;SDS011;4989;48.772;9.154;2023-02-28T10:42:55;5.50;;;4.83;;
9900;SDS011;4989;48.772;9.154;2023-02-28T10:48:32;5.07;;;4.50;;
9900;SDS011;4989;48.772;9.154;2023-02-28T10:53:46;7.63;;;4.93;;
9900;SDS011;4989;48.772;9.154;2023-02-28T11:14:33;5.43;;;4.93;;
9900;SDS011;4989;48.772;9.154;2023-02-28T11:19:53;7.90;;;5.70;;
9900;SDS011;4989;48.772;9.154;2023-02-28T11:25:01;6.40;;;5.53;;
9900;SDS011;4989;48.772;9.154;2023-02-28T11:30:22;5.93;;;4.80;;
9900;SDS011;4989;48.772;9.154;2023-02-28T11:35:35;6.93;;;5.13;;
9900;SDS011;4989;48.772;9.154;2023-02-28T11:40:46;6.70;;;5.40;;
9900;SDS011;4989;48.772;9.154;2023-02-28T11:46:12;6.17;;;5.57;;
9900;SDS011;4989;48.772;9.154;2023-02-28T11:51:35;6.97;;;5.93;;
9900;SDS011;4989;48.772;9.154;2023-02-28T11:57:15;6.00;;;5.40;;
9900;SDS011;4989;48.772;9.154;2023-02-28T12:13:26;8.27;;;6.10;;
9900;SDS011;4989;48.772;9.154;2023-02-28T12:24:44;8.30;;;5.23;;
9900;SDS011;4989;48.772;9.154;2023-02-28T12:30:13;7.80;;;6.03;;
9900;SDS011;4989;48.772;9.154;2023-02-28T12:36:07;7.43;;;6.00;;
9900;SDS011;4989;48.772;9.154;2023-02-28T12:41:00;6.30;;;5.70;;
9900;SDS011;4989;48.772;9.154;2023-02-28T12:51:50;6.00;;;5.40;;
9900;SDS011;4989;48.772;9.154;2023-02-28T12:57:31;6.43;;;5.73;;
9900;SDS011;4989;48.772;9.154;2023-02-28T13:13:42;6.37;;;5.67;;
9900;SDS011;4989;48.772;9.154;2023-02-28T13:18:46;7.03;;;5.83;;
9900;SDS011;4989;48.772;9.154;2023-02-28T13:28:59;6.70;;;5.87;;
9900;SDS011;4989;48.772;9.154;2023-02-28T13:34:17;6.27;;;5.23;;
9900;SDS011;4989;48.772;9.154;2023-02-28T13:45:18;6.10;;;5.50;;
9900;SDS011;4989;48.772;9.154;2023-02-28T13:50:15;8.03;;;6.40;;
9900;SDS011;4989;48.772;9.154;2023-02-28T14:06:32;8.97;;;5.47;;
9900;SDS011;4989;48.772;9.154;2023-02-28T14:11:38;6.93;;;5.87;;
9900;SDS011;4989;48.772;9.154;2023-02-28T14:16:44;6.83;;;6.20;;
9900;SDS011;4989;48.772;9.154;2023-02-28T14:27:24;8.30;;;5.60;;
9900;SDS011;4989;48.772;9.154;2023-02-28T14:38:32;10.10;;;5.40;;
9900;SDS011;4989;48.772;9.154;2023-02-28T14:43:56;5.50;;;5.00;;
9900;SDS011;4989;48.772;9.154;2023-02-28T14:49:06;8.77;;;6.43;;
9900;SDS011;4989;48.772;9.154;2023-02-28T14:54:19;6.27;;;5.50;;
9900;SDS011;4989;48.772;9.154;2023-02-28T15:04:30;7.27;;;5.80;;
9900;SDS011;4989;48.772;9.154;2023-02-28T15:09:34;5.03;;;4.53;;
9900;SDS011;4989;48.772;9.154;2023-02-28T15:14:37;7.20;;;5.77;;
9900;SDS011;4989;48.772;9.154;2023-02-28T15:19:43;6.67;;;5.83;;
9900;SDS011;4989;48.772;9.154;2023-02-28T15:24:50;4.90;;;4.30;;
9900;SDS011;4989;48.772;9.154;2023-02-28T15:29:56;5.97;;;5.07;;
9900;SDS011;4989;48.772;9.154;2023-02-28T15:40:29;6.07;;;5.23;;
9900;SDS011;4989;48.772;9.154;2023-02-28T15:45:41;6.03;;;5.20;;
9900;SDS011;4989;48.772;9.154;2023-02-28T15:51:07;6.10;;;5.50;;
9900;SDS011;4989;48.772;9.154;2023-02-28T16:07:14;6.40;;;5.47;;
9900;SDS011;4989;48.772;9.154;2023-02-28T16:12:17;6.63;;;5.70;;
9900;SDS011;4989;48.772;9.154;2023-02-28T16:17:21;5.87;;;5.27;;
9900;SDS011;4989;48.772;9.154;2023-02-28T16:22:26;6.03;;;5.30;;
9900;SDS011;4989;48.772;9.154;2023-02-28T16:27:32;6.07;;;5.47;;
9900;SDS011;4989;48.772;9.154;2023-02-28T16:32:39;6.30;;;5.70;;
9900;SDS011;4989;48.772;9.154;2023-02-28T16:37:44;7.03;;;5.63;;
9900;SDS011;4989;48.772;9.154;2023-02-28T16:42:48;6.57;;;5.63;;
9900;SDS011;4989;48.772;9.154;2023-02-28T16:47:53;7.33;;;5.83;;
9900;SDS011;4989;48.772;9.154;2023-02-28T16:52:57;8.27;;;6.13;;
9900;SDS011;4989;48.772;9.154;2023-02-28T16:58:00;6.67;;;5.90;;
9900;SDS011;4989;48.772;9.154;2023-02-28T17:03:04;6.80;;;5.90;;
9900;SDS011;4989;48.772;9.154;2023-02-28T17:08:08;6.00;;;4.73;;
9900;SDS011;4989;48.772;9.154;2023-02-28T17:13:11;7.23;;;6.10;;
9900;SDS011;4989;48.772;9.154;2023-02-28T17:18:16;5.97;;;5.37;;
9900;SDS011;4989;48.772;9.154;2023-02-28T17:23:21;9.40;;;5.90;;
9900;SDS011;4989;48.772;9.154;2023-02-28T17:28:23;7.13;;;5.83;;
9900;SDS011;4989;48.772;9.154;2023-02-28T17:33:25;9.07;;;7.13;;
9900;SDS011;4989;48.772;9.154;2023-02-28T17:38:27;7.30;;;5.77;;
9900;SDS011;4989;48.772;9.154;2023-02-28T17:43:29;7.37;;;5.90;;
9900;SDS011;4989;48.772;9.154;2023-02-28T17:48:32;8.17;;;5.77;;
9900;SDS011;4989;48.772;9.154;2023-02-28T17:53:37;6.87;;;6.03;;
9900;SDS011;4989;48.772;9.154;2023-02-28T17:58:39;9.50;;;6.67;;
9900;SDS011;4989;48.772;9.154;2023-02-28T18:03:41;8.17;;;6.70;;
9900;SDS011;4989;48.772;9.154;2023-02-28T18:08:43;11.90;;;7.50;;
9900;SDS011;4989;48.772;9.154;2023-02-28T18:13:45;7.10;;;6.07;;
9900;SDS011;4989;48.772;9.154;2023-02-28T18:18:50;8.60;;;7.30;;
9900;SDS011;4989;48.772;9.154;2023-02-28T18:23:52;10.23;;;7.37;;
9900;SDS011;4989;48.772;9.154;2023-02-28T18:28:55;9.87;;;7.67;;
9900;SDS011;4989;48.772;9.154;2023-02-28T18:33:57;9.63;;;7.37;;
9900;SDS011;4989;48.772;9.154;2023-02-28T18:38:59;9.00;;;6.60;;
9900;SDS011;4989;48.772;9.154;2023-02-28T18:44:02;9.03;;;6.17;;
9900;SDS011;4989;48.772;9.154;2023-02-28T18:49:19;8.97;;;5.90;;
9900;SDS011;4989;48.772;9.154;2023-02-28T18:54:22;12.30;;;7.00;;
9900;SDS011;4989;48.772;9.154;2023-02-28T18:59:24;10.57;;;7.77;;
9900;SDS011;4989;48.772;9.154;2023-02-28T19:04:26;9.13;;;7.63;;
9900;SDS011;4989;48.772;9.154;2023-02-28T19:09:29;10.43;;;8.37;;
9900;SDS011;4989;48.772;9.154;2023-02-28T19:14:31;8.57;;;6.83;;
9900;SDS011;4989;48.772;9.154;2023-02-28T19:19:33;9.33;;;6.93;;
9900;SDS011;4989;48.772;9.154;2023-02-28T19:24:35;10.33;;;6.90;;
9900;SDS011;4989;48.772;9.154;2023-02-28T19:29:37;8.90;;;7.30;;
9900;SDS011;4989;48.772;9.154;2023-02-28T19:34:39;10.43;;;7.63;;
9900;SDS011;4989;48.772;9.154;2023-02-28T19:39:42;10.37;;;7.50;;
9900;SDS011;4989;48.772;9.154;2023-02-28T19:44:45;9.50;;;7.50;;
9900;SDS011;4989;48.772;9.154;2023-02-28T19:49:47;8.73;;;6.73;;
9900;SDS011;4989;48.772;9.154;2023-02-28T19:54:49;10.07;;;7.97;;
9900;SDS011;4989;48.772;9.154;2023-02-28T19:59:52;7.07;;;6.00;;
9900;SDS011;4989;48.772;9.154;2023-02-28T20:04:54;8.10;;;6.47;;
9900;SDS011;4989;48.772;9.154;2023-02-28T20:10:00;10.83;;;7.87;;
9900;SDS011;4989;48.772;9.154;2023-02-28T20:15:03;7.80;;;6.60;;
9900;SDS011;4989;48.772;9.154;2023-02-28T20:20:05;10.30;;;7.83;;
9900;SDS011;4989;48.772;9.154;2023-02-28T20:25:11;9.00;;;7.20;;
9900;SDS011;4989;48.772;9.154;2023-02-28T20:30:14;9.33;;;6.30;;
9900;SDS011;4989;48.772;9.154;2023-02-28T20:35:16;7.90;;;6.87;;
9900;SDS011;4989;48.772;9.154;2023-02-28T20:40:18;8.80;;;6.97;;
9900;SDS011;4989;48.772;9.154;2023-02-28T20:45:20;8.53;;;7.30;;
9900;SDS011;4989;48.772;9.154;2023-02-28T20:50:24;9.70;;;7.50;;
9900;SDS011;4989;48.772;9.154;2023-02-28T20:55:27;8.73;;;7.13;;
9900;SDS011;4989;48.772;9.154;2023-02-28T21:00:29;11.10;;;8.17;;
9900;SDS011;4989;48.772;9.154;2023-02-28T21:05:31;11.07;;;8.00;;
9900;SDS011;4989;48.772;9.154;2023-02-28T21:10:33;11.17;;;8.43;;
9900;SDS011;4989;48.772;9.154;2023-02-28T21:15:36;10.97;;;7.53;;
9900;SDS011;4989;48.772;9.154;2023-02-28T21:20:39;13.77;;;9.37;;
9900;SDS011;4989;48.772;9.154;2023-02-28T21:25:41;12.43;;;8.43;;
9900;SDS011;4989;48.772;9.154;2023-02-28T21:30:43;11.67;;;8.63;;
9900;SDS011;4989;48.772;9.154;2023-02-28T21:35:45;11.00;;;8.17;;
9900;SDS011;4989;48.772;9.154;2023-02-28T21:40:47;10.80;;;8.20;;
9900;SDS011;4989;48.772;9.154;2023-02-28T21:45:51;8.97;;;6.80;;
9900;SDS011;4989;48.772;9.154;2023-02-28T21:50:55;8.47;;;6.70;;
9900;SDS011;4989;48.772;9.154;2023-02-28T21:56:02;11.17;;;7.77;;
9900;SDS011;4989;48.772;9.154;2023-02-28T22:06:41;8.53;;;6.60;;
9900;SDS011;4989;48.772;9.154;2023-02-28T22:11:45;8.00;;;7.03;;
9900;SDS011;4989;48.772;9.154;2023-02-28T22:16:48;11.63;;;8.20;;
9900;SDS011;4989;48.772;9.154;2023-02-28T22:21:54;11.83;;;7.03;;
9900;SDS011;4989;48.772;9.154;2023-02-28T22:26:56;10.37;;;7.37;;
9900;SDS011;4989;48.772;9.154;2023-02-28T22:31:58;11.60;;;8.23;;
9900;SDS011;4989;48.772;9.154;2023-02-28T22:37:01;11.03;;;8.07;;
9900;SDS011;4989;48.772;9.154;2023-02-28T22:42:03;10.17;;;7.17;;
9900;SDS011;4989;48.772;9.154;2023-02-28T22:47:05;11.03;;;7.33;;
9900;SDS011;4989;48.772;9.154;2023-02-28T22:52:07;10.33;;;7.43;;
9900;SDS011;4989;48.772;9.154;2023-02-28T22:57:09;9.63;;;7.90;;
9900;SDS011;4989;48.772;9.154;2023-02-28T23:02:13;9.87;;;7.60;;
9900;SDS011;4989;48.772;9.154;2023-02-28T23:07:15;9.73;;;7.83;;
9900;SDS011;4989;48.772;9.154;2023-02-28T23:12:17;11.97;;;7.67;;
9900;SDS011;4989;48.772;9.154;2023-02-28T23:17:19;9.50;;;7.67;;
9900;SDS011;4989;48.772;9.154;2023-02-28T23:22:22;8.60;;;7.30;;
9900;SDS011;4989;48.772;9.154;2023-02-28T23:27:24;10.77;;;7.87;;
9900;SDS011;4989;48.772;9.154;2023-02-28T23:32:26;11.40;;;7.67;;
9900;SDS011;4989;48.772;9.154;2023-02-28T23:37:29;10.07;;;7.17;;
9900;SDS011;4989;48.772;9.154;2023-02-28T23:42:33;9.50;;;7.13;;
9900;SDS011;4989;48.772;9.154;2023-02-28T23:47:35;10.10;;;7.23;;
9900;SDS011;4989;48.772;9.154;2023-02-28T23:52:37;10.47;;;7.07;;
9900;SDS011;4989;48.772;9.154;2023-02-28T23:57:40;10.80;;;7.83;;
